createdAt,value
2023-03-29T00:01:56.563Z,17.88
2023-03-29T00:06:58.042Z,12.65
2023-03-29T00:12:00.258Z,16.35
2023-03-29T00:17:01.739Z,15.30
2023-03-29T00:22:05.807Z,14.20
2023-03-29T00:27:07.282Z,15.68
2023-03-29T00:32:08.750Z,14.50
2023-03-29T00:37:10.206Z,17.77
2023-03-29T00:42:13.002Z,15.45
2023-03-29T00:47:14.477Z,19.23
2023-03-29T00:52:15.980Z,15.63
2023-03-29T00:57:17.514Z,20.25
2023-03-29T01:02:22.082Z,16.05
2023-03-29T01:07:48.156Z,17.10
2023-03-29T01:12:56.248Z,16.65
2023-03-29T01:17:58.385Z,12.27
2023-03-29T01:23:45.805Z,11.98
2023-03-29T01:28:51.657Z,22.20
2023-03-29T01:33:57.576Z,14.95
2023-03-29T01:39:00.711Z,15.32
2023-03-29T01:44:04.934Z,16.40
2023-03-29T01:49:12.127Z,12.40
2023-03-29T01:54:19.614Z,13.85
2023-03-29T01:59:22.660Z,12.10
2023-03-29T02:04:27.595Z,11.05
2023-03-29T02:09:29.512Z,13.98
2023-03-29T02:14:30.977Z,11.15
2023-03-29T02:19:32.497Z,13.73
2023-03-29T02:24:33.955Z,11.77
2023-03-29T02:29:35.405Z,13.00
2023-03-29T02:34:47.649Z,10.68
2023-03-29T02:39:49.666Z,14.52
2023-03-29T02:44:54.043Z,12.35
2023-03-29T02:49:55.673Z,11.10
2023-03-29T02:54:57.142Z,14.20
2023-03-29T02:59:58.724Z,11.15
2023-03-29T03:05:00.198Z,12.95
2023-03-29T03:10:03.840Z,10.77
2023-03-29T03:15:05.727Z,10.00
2023-03-29T03:20:13.954Z,7.57
2023-03-29T03:25:16.975Z,11.15
2023-03-29T03:30:18.833Z,12.10
2023-03-29T03:35:21.068Z,13.98
2023-03-29T03:40:22.549Z,11.73
2023-03-29T03:45:24.697Z,10.05
2023-03-29T03:50:26.162Z,9.88
2023-03-29T03:55:29.927Z,13.88
2023-03-29T04:00:31.397Z,10.40
2023-03-29T04:05:32.841Z,10.55
2023-03-29T04:10:34.704Z,10.38
2023-03-29T04:15:38.943Z,12.02
2023-03-29T04:20:40.446Z,11.48
2023-03-29T04:25:41.923Z,10.65
2023-03-29T04:30:43.544Z,10.27
2023-03-29T04:35:45.079Z,10.00
2023-03-29T04:40:46.545Z,11.32
2023-03-29T04:45:48.076Z,8.27
2023-03-29T04:50:49.819Z,12.90
2023-03-29T04:55:52.394Z,11.23
2023-03-29T05:00:58.177Z,10.13
2023-03-29T05:06:07.200Z,10.13
2023-03-29T05:11:10.220Z,11.23
2023-03-29T05:16:11.734Z,9.05
2023-03-29T05:21:13.316Z,8.88
2023-03-29T05:26:15.357Z,10.68
2023-03-29T05:31:17.420Z,11.68
2023-03-29T05:36:19.260Z,10.02
2023-03-29T05:41:20.714Z,12.25
2023-03-29T05:46:22.216Z,12.95
2023-03-29T05:51:24.643Z,12.68
2023-03-29T05:56:26.824Z,12.02
2023-03-29T06:01:28.580Z,13.70
2023-03-29T06:06:30.069Z,12.13
2023-03-29T06:11:33.097Z,12.77
2023-03-29T06:16:34.627Z,17.17
2023-03-29T06:21:36.129Z,20.27
2023-03-29T06:26:37.581Z,19.55
2023-03-29T06:31:39.100Z,15.90
2023-03-29T06:36:40.571Z,15.32
2023-03-29T06:41:42.472Z,15.85
2023-03-29T06:46:44.976Z,19.85
2023-03-29T06:51:46.887Z,16.73
2023-03-29T06:56:48.713Z,18.90
2023-03-29T07:01:50.276Z,18.75
2023-03-29T07:07:01.216Z,19.15
2023-03-29T07:12:02.672Z,18.00
2023-03-29T07:17:05.716Z,18.05
2023-03-29T07:22:08.097Z,19.02
2023-03-29T07:27:09.699Z,18.33
2023-03-29T07:32:11.312Z,18.15
2023-03-29T07:37:12.833Z,21.83
2023-03-29T07:42:14.350Z,18.90
2023-03-29T07:47:15.813Z,24.02
2023-03-29T07:52:17.325Z,18.27
2023-03-29T07:57:18.868Z,18.13
2023-03-29T08:02:21.064Z,18.90
2023-03-29T08:07:23.922Z,19.42
2023-03-29T08:12:25.686Z,22.45
2023-03-29T08:17:27.165Z,20.95
2023-03-29T08:22:28.716Z,19.67
2023-03-29T08:27:30.226Z,21.73
2023-03-29T08:32:31.780Z,22.40
2023-03-29T08:37:33.270Z,20.92
2023-03-29T08:42:56.732Z,20.60
2023-03-29T08:48:04.062Z,20.30
2023-03-29T08:53:16.894Z,22.50
2023-03-29T08:58:20.495Z,21.00
2023-03-29T09:03:27.818Z,22.67
2023-03-29T09:08:29.347Z,24.48
2023-03-29T09:13:38.724Z,23.33
2023-03-29T09:18:42.443Z,23.13
2023-03-29T09:23:55.779Z,22.58
2023-03-29T09:29:20.415Z,21.40
2023-03-29T09:34:42.108Z,25.35
2023-03-29T09:39:43.745Z,21.33
2023-03-29T09:44:50.826Z,21.35
2023-03-29T09:49:55.275Z,22.23
2023-03-29T09:54:56.835Z,19.02
2023-03-29T09:59:58.944Z,21.77
2023-03-29T10:05:04.273Z,24.08
2023-03-29T10:10:09.460Z,24.77
2023-03-29T10:15:23.097Z,25.15
2023-03-29T10:20:30.698Z,22.63
2023-03-29T10:25:32.836Z,22.55
2023-03-29T10:30:37.841Z,19.02
2023-03-29T10:35:41.453Z,21.88
2023-03-29T10:40:49.562Z,20.33
2023-03-29T10:45:55.070Z,24.48
2023-03-29T10:51:00.948Z,26.73
2023-03-29T10:56:37.018Z,22.80
2023-03-29T11:01:56.578Z,20.95
2023-03-29T11:07:12.055Z,24.38
2023-03-29T11:12:41.581Z,22.42
2023-03-29T11:17:57.909Z,23.95
2023-03-29T11:23:25.552Z,23.98
2023-03-29T11:28:28.502Z,23.33
2023-03-29T11:33:37.483Z,20.38
2023-03-29T11:38:51.131Z,21.73
2023-03-29T11:44:08.422Z,20.98
2023-03-29T11:49:19.406Z,24.20
2023-03-29T11:54:42.534Z,22.88
2023-03-29T11:59:54.752Z,23.05
2023-03-29T12:04:57.274Z,25.02
2023-03-29T12:10:01.631Z,21.33
2023-03-29T12:15:19.974Z,22.42
2023-03-29T12:20:28.120Z,26.48
2023-03-29T12:25:52.188Z,24.13
2023-03-29T12:30:58.356Z,20.27
2023-03-29T12:36:21.897Z,20.38
2023-03-29T12:41:23.583Z,19.83
2023-03-29T12:46:26.384Z,22.20
2023-03-29T12:51:34.496Z,20.65
2023-03-29T12:56:58.424Z,20.00
2023-03-29T13:02:02.749Z,18.02
2023-03-29T13:07:04.892Z,25.90
2023-03-29T13:12:08.950Z,23.85
2023-03-29T13:17:27.910Z,19.02
2023-03-29T13:22:53.838Z,26.05
2023-03-29T13:28:13.018Z,18.35
2023-03-29T13:33:34.385Z,23.98
2023-03-29T13:38:46.929Z,22.23
2023-03-29T13:43:55.310Z,18.45
2023-03-29T13:49:23.913Z,19.58
2023-03-29T13:54:36.516Z,21.25
2023-03-29T14:00:00.661Z,20.02
2023-03-29T14:05:04.062Z,19.38
2023-03-29T14:10:05.727Z,20.92
2023-03-29T14:15:07.748Z,23.50
2023-03-29T14:20:09.618Z,20.00
2023-03-29T14:25:17.190Z,23.38
2023-03-29T14:30:20.351Z,20.65
2023-03-29T14:35:27.382Z,20.08
2023-03-29T14:40:29.782Z,16.35
2023-03-29T14:45:32.097Z,19.25
2023-03-29T14:50:33.621Z,20.95
2023-03-29T14:55:36.567Z,18.88
2023-03-29T15:00:39.320Z,18.45
2023-03-29T15:05:41.705Z,23.98
2023-03-29T15:10:45.088Z,18.88
2023-03-29T15:15:46.700Z,21.67
2023-03-29T15:20:48.278Z,18.80
2023-03-29T15:25:58.047Z,20.63
2023-03-29T15:31:08.264Z,17.58
2023-03-29T15:36:11.219Z,20.60
2023-03-29T15:41:16.120Z,20.77
2023-03-29T15:46:17.651Z,20.27
2023-03-29T15:51:19.128Z,17.83
2023-03-29T15:56:20.776Z,17.63
2023-03-29T16:01:35.507Z,18.02
2023-03-29T16:06:36.975Z,23.35
2023-03-29T16:11:39.434Z,22.00
2023-03-29T16:16:41.032Z,18.95
2023-03-29T16:21:43.104Z,21.23
2023-03-29T16:26:44.564Z,18.50
2023-03-29T16:31:46.755Z,19.30
2023-03-29T16:36:49.072Z,22.25
2023-03-29T16:41:50.906Z,23.63
2023-03-29T16:46:57.424Z,20.58
2023-03-29T16:51:59.795Z,18.90
2023-03-29T16:57:01.277Z,21.95
2023-03-29T17:02:02.780Z,22.05
2023-03-29T17:07:04.254Z,19.58
2023-03-29T17:12:05.828Z,18.63
2023-03-29T17:17:07.532Z,20.50
2023-03-29T17:22:08.999Z,17.67
2023-03-29T17:27:10.699Z,18.17
2023-03-29T17:32:12.187Z,17.05
2023-03-29T17:37:13.875Z,18.63
2023-03-29T17:42:16.165Z,19.70
2023-03-29T17:47:17.650Z,19.85
2023-03-29T17:52:19.262Z,18.48
2023-03-29T17:57:20.923Z,17.30
2023-03-29T18:02:23.467Z,20.65
2023-03-29T18:07:25.055Z,15.52
2023-03-29T18:12:27.313Z,17.55
2023-03-29T18:17:28.798Z,15.88
2023-03-29T18:22:33.140Z,16.52
2023-03-29T18:27:34.933Z,20.52
2023-03-29T18:32:36.611Z,18.75
2023-03-29T18:37:38.641Z,21.23
2023-03-29T18:42:40.384Z,21.67
2023-03-29T18:47:44.050Z,22.55
2023-03-29T18:52:46.985Z,22.80
2023-03-29T19:02:49.885Z,19.10
2023-03-29T19:07:54.164Z,18.95
2023-03-29T19:12:56.029Z,19.77
2023-03-29T19:17:57.578Z,17.75
2023-03-29T19:22:59.067Z,18.05
2023-03-29T19:28:00.570Z,17.55
2023-03-29T19:33:02.142Z,17.90
2023-03-29T19:38:03.650Z,14.95
2023-03-29T19:43:05.097Z,14.00
2023-03-29T19:48:07.061Z,13.88
2023-03-29T19:53:08.992Z,15.63
2023-03-29T19:58:10.499Z,13.95
2023-03-29T20:03:13.852Z,18.55
2023-03-29T20:08:15.634Z,17.27
2023-03-29T20:13:24.455Z,16.63
2023-03-29T20:18:33.312Z,19.50
2023-03-29T20:23:35.155Z,15.95
2023-03-29T20:28:39.427Z,18.27
2023-03-29T20:33:41.418Z,17.15
2023-03-29T20:38:42.882Z,18.38
2023-03-29T20:43:46.119Z,19.63
2023-03-29T20:48:53.337Z,21.75
2023-03-29T20:54:02.780Z,18.77
2023-03-29T21:04:08.227Z,17.55
2023-03-29T21:09:09.699Z,18.00
2023-03-29T21:14:11.176Z,20.92
2023-03-29T21:19:12.850Z,19.48
2023-03-29T21:24:14.360Z,24.77
2023-03-29T21:29:15.848Z,27.45
2023-03-29T21:34:17.294Z,24.85
2023-03-29T21:39:18.743Z,24.83
2023-03-29T21:44:20.337Z,25.70
2023-03-29T21:49:21.817Z,26.05
2023-03-29T21:54:23.273Z,28.52
2023-03-29T21:59:24.748Z,30.02
2023-03-29T22:04:35.831Z,26.25
2023-03-29T22:09:41.193Z,26.77
2023-03-29T22:14:42.675Z,31.83
2023-03-29T22:19:44.169Z,26.60
2023-03-29T22:24:45.693Z,32.88
2023-03-29T22:29:47.138Z,29.08
2023-03-29T22:34:48.578Z,32.85
2023-03-29T22:39:50.075Z,30.40
2023-03-29T22:44:51.548Z,28.95
2023-03-29T22:49:53.025Z,29.45
2023-03-29T22:54:54.470Z,30.33
2023-03-29T22:59:55.928Z,37.92
2023-03-29T23:04:57.430Z,34.22
2023-03-29T23:09:59.036Z,38.05
2023-03-29T23:15:00.523Z,37.22
2023-03-29T23:20:02.065Z,37.13
2023-03-29T23:25:03.619Z,37.30
2023-03-29T23:30:07.472Z,42.38
2023-03-29T23:35:09.053Z,41.63
2023-03-29T23:40:16.907Z,43.40
2023-03-29T23:45:18.493Z,43.72
2023-03-29T23:50:20.016Z,47.30
2023-03-29T23:55:21.482Z,46.50
